createdAt,value
2023-05-05T00:01:54.507Z,4.15
2023-05-05T00:04:20.929Z,3.92
2023-05-05T00:06:47.337Z,4.40
2023-05-05T00:09:13.718Z,4.43
2023-05-05T00:11:40.109Z,4.60
2023-05-05T00:14:06.511Z,4.90
2023-05-05T00:16:32.930Z,4.97
2023-05-05T00:18:59.489Z,4.30
2023-05-05T00:21:25.989Z,4.63
2023-05-05T00:23:52.349Z,4.97
2023-05-05T00:26:18.706Z,4.68
2023-05-05T00:28:45.193Z,4.63
2023-05-05T00:31:11.557Z,4.50
2023-05-05T00:33:37.918Z,4.78
2023-05-05T00:36:04.337Z,4.20
2023-05-05T00:38:30.667Z,4.57
2023-05-05T00:40:57.063Z,4.20
2023-05-05T00:43:23.478Z,4.07
2023-05-05T00:45:53.970Z,4.70
2023-05-05T00:48:20.321Z,4.57
2023-05-05T00:50:46.784Z,4.93
2023-05-05T00:53:13.158Z,3.90
2023-05-05T00:55:39.784Z,4.20
2023-05-05T00:58:06.330Z,4.70
2023-05-05T01:00:33.009Z,4.93
2023-05-05T01:02:59.719Z,5.28
2023-05-05T01:05:27.459Z,5.22
2023-05-05T01:08:12.956Z,4.82
2023-05-05T01:10:46.048Z,5.25
2023-05-05T01:13:27.728Z,6.03
2023-05-05T01:15:59.963Z,6.65
2023-05-05T01:18:41.925Z,6.53
2023-05-05T01:21:19.560Z,7.40
2023-05-05T01:23:54.882Z,6.93
2023-05-05T01:26:39.680Z,6.57
2023-05-05T01:29:09.201Z,6.15
2023-05-05T01:31:54.953Z,6.38
2023-05-05T01:34:34.328Z,6.43
2023-05-05T01:37:20.939Z,5.90
2023-05-05T01:39:50.041Z,5.25
2023-05-05T01:42:17.278Z,5.70
2023-05-05T01:44:44.032Z,5.80
2023-05-05T01:47:12.427Z,5.80
2023-05-05T01:49:39.497Z,6.28
2023-05-05T01:52:05.990Z,5.80
2023-05-05T01:54:33.577Z,6.25
2023-05-05T01:57:02.482Z,6.03
2023-05-05T01:59:28.947Z,7.53
2023-05-05T02:01:55.853Z,6.70
2023-05-05T02:04:22.997Z,6.65
2023-05-05T02:06:50.307Z,7.18
2023-05-05T02:09:17.389Z,6.20
2023-05-05T02:11:43.799Z,6.45
2023-05-05T02:14:10.264Z,6.70
2023-05-05T02:16:37.921Z,6.68
2023-05-05T02:19:05.159Z,6.68
2023-05-05T02:21:31.911Z,7.28
2023-05-05T02:23:58.510Z,7.43
2023-05-05T02:26:25.042Z,6.80
2023-05-05T02:29:17.471Z,5.93
2023-05-05T02:31:49.266Z,6.35
2023-05-05T02:34:24.101Z,6.15
2023-05-05T02:36:51.898Z,6.18
2023-05-05T02:39:31.527Z,5.85
2023-05-05T02:41:58.139Z,6.38
2023-05-05T02:44:24.770Z,6.95
2023-05-05T02:46:51.343Z,7.03
2023-05-05T02:49:17.730Z,6.68
2023-05-05T02:51:44.087Z,6.53
2023-05-05T02:54:10.835Z,6.45
2023-05-05T02:56:50.752Z,6.63
2023-05-05T02:59:35.930Z,5.25
2023-05-05T03:02:14.258Z,6.40
2023-05-05T03:05:09.968Z,5.00
2023-05-05T03:07:48.878Z,4.57
2023-05-05T03:10:18.101Z,4.35
2023-05-05T03:12:46.149Z,4.70
2023-05-05T03:15:13.872Z,4.30
2023-05-05T03:17:40.745Z,4.43
2023-05-05T03:20:07.757Z,4.45
2023-05-05T03:22:37.603Z,5.25
2023-05-05T03:25:04.430Z,4.17
2023-05-05T03:27:30.825Z,3.40
2023-05-05T03:29:57.344Z,3.72
2023-05-05T03:32:24.055Z,4.03
2023-05-05T03:34:50.471Z,3.55
2023-05-05T03:37:16.832Z,4.77
2023-05-05T03:39:43.221Z,4.85
2023-05-05T03:42:09.583Z,4.28
2023-05-05T03:44:35.957Z,4.30
2023-05-05T03:47:02.328Z,3.88
2023-05-05T03:49:28.680Z,4.43
2023-05-05T03:51:55.028Z,3.85
2023-05-05T03:54:21.442Z,3.38
2023-05-05T03:56:48.196Z,3.75
2023-05-05T03:59:14.544Z,2.90
2023-05-05T04:01:41.025Z,3.57
2023-05-05T04:04:07.431Z,3.70
2023-05-05T04:06:33.790Z,3.60
2023-05-05T04:09:00.224Z,3.15
2023-05-05T04:11:26.549Z,3.42
2023-05-05T04:13:52.888Z,3.60
2023-05-05T04:16:19.326Z,3.50
2023-05-05T04:18:45.721Z,3.00
2023-05-05T04:21:12.088Z,3.15
2023-05-05T04:23:38.561Z,2.88
2023-05-05T04:26:05.005Z,2.83
2023-05-05T04:28:31.359Z,2.75
2023-05-05T04:30:57.769Z,2.67
2023-05-05T04:33:24.113Z,2.47
2023-05-05T04:35:50.482Z,2.67
2023-05-05T04:38:16.978Z,2.60
2023-05-05T04:40:43.342Z,2.65
2023-05-05T04:43:09.733Z,2.80
2023-05-05T04:45:36.209Z,2.28
2023-05-05T04:48:02.617Z,2.30
2023-05-05T04:50:28.997Z,3.10
2023-05-05T04:52:55.443Z,3.20
2023-05-05T04:55:22.016Z,2.63
2023-05-05T04:57:48.451Z,2.20
2023-05-05T05:00:14.994Z,6.00
2023-05-05T05:02:41.437Z,3.17
2023-05-05T05:05:08.075Z,3.10
2023-05-05T05:07:34.537Z,3.10
2023-05-05T05:10:00.891Z,3.00
2023-05-05T05:12:27.246Z,3.05
2023-05-05T05:14:53.633Z,3.57
2023-05-05T05:17:20.065Z,3.20
2023-05-05T05:19:46.433Z,3.67
2023-05-05T05:22:12.914Z,2.60
2023-05-05T05:24:39.287Z,2.38
2023-05-05T05:27:06.778Z,2.43
2023-05-05T05:29:34.276Z,2.38
2023-05-05T05:32:00.704Z,2.55
2023-05-05T05:34:27.051Z,3.33
2023-05-05T05:36:53.414Z,2.75
2023-05-05T05:39:19.773Z,3.00
2023-05-05T05:41:46.105Z,2.67
2023-05-05T05:44:12.596Z,2.50
2023-05-05T05:46:39.003Z,3.38
2023-05-05T05:49:05.405Z,2.50
2023-05-05T05:51:31.835Z,2.43
2023-05-05T05:53:58.937Z,2.65
2023-05-05T05:56:25.876Z,2.20
2023-05-05T05:58:52.513Z,2.35
2023-05-05T06:01:19.007Z,2.40
2023-05-05T06:03:45.496Z,1.90
2023-05-05T06:06:11.993Z,3.08
2023-05-05T06:08:38.338Z,2.55
2023-05-05T06:11:04.751Z,2.90
2023-05-05T06:13:31.239Z,2.92
2023-05-05T06:15:57.655Z,2.87
2023-05-05T06:18:24.123Z,3.50
2023-05-05T06:20:50.733Z,3.10
2023-05-05T06:23:17.107Z,2.80
2023-05-05T06:25:43.517Z,2.85
2023-05-05T06:28:09.969Z,3.40
2023-05-05T06:30:36.358Z,3.20
2023-05-05T06:33:02.824Z,3.08
2023-05-05T06:35:29.260Z,3.05
2023-05-05T06:37:55.592Z,3.63
2023-05-05T06:40:21.954Z,4.00
2023-05-05T06:42:48.322Z,3.70
2023-05-05T06:45:15.217Z,4.25
2023-05-05T06:47:42.617Z,3.78
2023-05-05T06:50:09.386Z,3.58
2023-05-05T06:52:36.068Z,3.53
2023-05-05T06:55:02.426Z,3.38
2023-05-05T06:57:29.640Z,3.28
2023-05-05T06:59:56.048Z,2.38
2023-05-05T07:02:23.513Z,3.08
2023-05-05T07:04:51.229Z,2.70
2023-05-05T07:07:17.702Z,2.60
2023-05-05T07:09:44.047Z,2.63
2023-05-05T07:12:10.497Z,2.97
2023-05-05T07:14:36.991Z,2.80
2023-05-05T07:17:03.341Z,2.40
2023-05-05T07:19:29.777Z,2.50
2023-05-05T07:21:56.143Z,2.33
2023-05-05T07:24:23.684Z,3.20
2023-05-05T07:26:50.076Z,3.03
2023-05-05T07:29:16.480Z,3.50
2023-05-05T07:31:42.981Z,2.97
2023-05-05T07:34:09.521Z,2.80
2023-05-05T07:36:35.931Z,2.60
2023-05-05T07:39:02.302Z,3.58
2023-05-05T07:41:28.784Z,3.17
2023-05-05T07:43:55.140Z,3.20
2023-05-05T07:46:21.753Z,3.70
2023-05-05T07:48:48.211Z,3.40
2023-05-05T07:51:14.509Z,3.25
2023-05-05T07:53:41.246Z,3.83
2023-05-05T07:56:07.775Z,3.75
2023-05-05T07:58:34.261Z,3.53
2023-05-05T08:01:00.739Z,3.80
2023-05-05T08:03:27.299Z,3.58
2023-05-05T08:05:54.695Z,4.03
2023-05-05T08:08:21.346Z,3.53
2023-05-05T08:10:47.754Z,3.67
2023-05-05T08:13:14.171Z,3.33
2023-05-05T08:15:40.814Z,3.80
2023-05-05T08:18:07.474Z,4.40
2023-05-05T08:20:34.132Z,3.63
2023-05-05T08:23:00.590Z,4.22
2023-05-05T08:25:27.065Z,3.80
2023-05-05T08:27:53.453Z,3.67
2023-05-05T08:30:26.966Z,4.43
2023-05-05T08:32:53.518Z,3.63
2023-05-05T08:35:19.936Z,3.42
2023-05-05T08:37:46.322Z,4.30
2023-05-05T08:40:13.121Z,4.22
2023-05-05T08:42:40.371Z,4.10
2023-05-05T08:45:08.884Z,3.78
2023-05-05T08:47:36.858Z,3.45
2023-05-05T08:50:04.366Z,3.90
2023-05-05T08:52:37.888Z,4.28
2023-05-05T08:55:18.010Z,4.90
2023-05-05T08:57:52.185Z,3.78
2023-05-05T09:00:20.242Z,3.60
2023-05-05T09:02:47.793Z,3.40
2023-05-05T09:05:14.597Z,3.17
2023-05-05T09:07:41.195Z,3.37
2023-05-05T09:10:11.844Z,3.40
2023-05-05T09:12:39.270Z,3.13
2023-05-05T09:15:11.024Z,3.65
2023-05-05T09:17:38.480Z,2.95
2023-05-05T09:20:10.508Z,3.47
2023-05-05T09:22:47.331Z,3.45
2023-05-05T09:25:17.955Z,3.22
2023-05-05T09:27:49.198Z,3.92
2023-05-05T09:30:25.255Z,3.20
2023-05-05T09:32:53.788Z,3.07
2023-05-05T09:35:21.355Z,3.20
2023-05-05T09:37:48.059Z,3.13
2023-05-05T09:40:17.234Z,2.97
2023-05-05T09:42:44.754Z,3.63
2023-05-05T09:45:17.372Z,2.70
2023-05-05T09:47:47.606Z,3.35
2023-05-05T09:50:15.869Z,3.38
2023-05-05T09:52:42.943Z,4.10
2023-05-05T09:55:19.713Z,3.90
2023-05-05T09:57:46.344Z,3.07
2023-05-05T10:00:13.748Z,3.00
2023-05-05T10:02:40.560Z,2.92
2023-05-05T10:05:09.814Z,2.83
2023-05-05T10:07:36.753Z,3.22
2023-05-05T10:10:04.079Z,3.03
2023-05-05T10:12:31.062Z,2.78
2023-05-05T10:14:57.735Z,2.17
2023-05-05T10:17:24.791Z,2.42
2023-05-05T10:19:52.320Z,2.80
2023-05-05T10:22:21.953Z,3.07
2023-05-05T10:24:55.653Z,2.58
2023-05-05T10:27:23.324Z,2.50
2023-05-05T10:29:55.276Z,2.40
2023-05-05T10:32:51.095Z,2.47
2023-05-05T10:35:15.815Z,2.00
2023-05-05T10:37:42.503Z,2.20
2023-05-05T10:40:09.746Z,2.05
2023-05-05T10:42:39.442Z,2.28
2023-05-05T10:45:06.603Z,2.70
2023-05-05T10:47:33.532Z,2.93
2023-05-05T10:50:03.971Z,2.40
2023-05-05T10:52:42.498Z,2.50
2023-05-05T10:55:12.523Z,2.50
2023-05-05T10:57:40.416Z,2.35
2023-05-05T11:00:07.939Z,2.03
2023-05-05T11:02:34.824Z,2.30
2023-05-05T11:05:16.877Z,2.00
2023-05-05T11:07:46.957Z,3.00
2023-05-05T11:10:14.334Z,2.03
2023-05-05T11:12:56.215Z,2.47
2023-05-05T11:15:28.457Z,3.10
2023-05-05T11:17:55.531Z,2.90
2023-05-05T11:20:51.090Z,2.95
2023-05-05T11:23:20.194Z,3.10
2023-05-05T11:25:46.603Z,3.53
2023-05-05T11:28:17.027Z,3.05
2023-05-05T11:30:55.389Z,2.85
2023-05-05T11:33:28.659Z,2.70
2023-05-05T11:35:58.527Z,2.58
2023-05-05T11:38:30.784Z,2.93
2023-05-05T11:41:02.116Z,2.53
2023-05-05T11:43:28.465Z,2.70
2023-05-05T11:46:12.915Z,2.60
2023-05-05T11:48:49.108Z,2.22
2023-05-05T11:51:16.344Z,2.40
2023-05-05T11:53:42.711Z,2.05
2023-05-05T11:56:10.395Z,2.60
2023-05-05T11:58:37.282Z,2.60
2023-05-05T12:01:07.360Z,2.35
2023-05-05T12:03:39.987Z,2.20
2023-05-05T12:06:07.038Z,2.67
2023-05-05T12:08:39.870Z,2.72
2023-05-05T12:11:10.179Z,2.33
2023-05-05T12:13:36.574Z,2.53
2023-05-05T12:16:15.362Z,2.33
2023-05-05T12:18:42.402Z,2.40
2023-05-05T12:21:14.867Z,2.15
2023-05-05T12:23:41.249Z,2.67
2023-05-05T12:26:07.591Z,2.60
2023-05-05T12:28:46.201Z,1.80
2023-05-05T12:31:12.645Z,2.25
2023-05-05T12:33:40.023Z,2.15
2023-05-05T12:36:07.368Z,2.25
2023-05-05T12:38:33.759Z,2.22
2023-05-05T12:41:00.133Z,2.50
2023-05-05T12:43:30.149Z,4.95
2023-05-05T12:45:59.432Z,2.35
2023-05-05T12:48:25.827Z,2.65
2023-05-05T12:50:52.390Z,2.70
2023-05-05T12:53:22.030Z,2.30
2023-05-05T12:55:50.208Z,2.20
2023-05-05T12:58:17.599Z,2.55
2023-05-05T13:00:43.983Z,2.80
2023-05-05T13:03:19.930Z,1.67
2023-05-05T13:05:46.417Z,1.83
2023-05-05T13:08:12.789Z,1.58
2023-05-05T13:10:39.212Z,1.73
2023-05-05T13:13:05.675Z,1.55
2023-05-05T13:15:33.425Z,1.60
2023-05-05T13:18:00.574Z,2.00
2023-05-05T13:20:26.976Z,1.52
2023-05-05T13:22:53.352Z,2.33
2023-05-05T13:25:19.841Z,2.25
2023-05-05T13:27:46.219Z,2.00
2023-05-05T13:30:12.747Z,1.77
2023-05-05T13:32:39.309Z,2.58
2023-05-05T13:35:06.092Z,1.65
2023-05-05T13:37:32.593Z,1.98
2023-05-05T13:39:58.998Z,1.85
2023-05-05T13:42:25.346Z,1.90
2023-05-05T13:44:51.707Z,2.03
2023-05-05T13:47:18.306Z,1.65
2023-05-05T13:49:44.914Z,1.50
2023-05-05T13:52:11.261Z,1.60
2023-05-05T13:54:37.665Z,1.90
2023-05-05T13:57:04.172Z,1.83
2023-05-05T13:59:30.555Z,1.60
2023-05-05T14:01:56.924Z,1.40
2023-05-05T14:04:23.329Z,1.60
2023-05-05T14:06:49.691Z,1.50
2023-05-05T14:09:16.165Z,1.90
2023-05-05T14:11:42.522Z,1.80
2023-05-05T14:14:08.885Z,1.48
2023-05-05T14:16:35.357Z,1.58
2023-05-05T14:19:01.788Z,1.40
2023-05-05T14:21:28.121Z,1.60
2023-05-05T14:23:54.502Z,1.48
2023-05-05T14:26:23.875Z,1.90
2023-05-05T14:28:50.335Z,1.50
2023-05-05T14:31:16.813Z,1.20
2023-05-05T14:33:43.148Z,1.52
2023-05-05T14:36:09.483Z,1.20
2023-05-05T14:38:36.041Z,1.83
2023-05-05T14:41:02.456Z,1.48
2023-05-05T14:43:28.832Z,1.40
2023-05-05T14:45:55.272Z,1.88
2023-05-05T14:48:21.668Z,1.90
2023-05-05T14:50:48.647Z,2.30
2023-05-05T14:53:15.109Z,1.60
2023-05-05T14:55:41.946Z,1.40
2023-05-05T14:58:09.346Z,1.52
2023-05-05T15:00:35.730Z,2.17
2023-05-05T15:03:02.208Z,1.52
2023-05-05T15:05:28.699Z,1.48
2023-05-05T15:07:55.444Z,1.70
2023-05-05T15:10:22.045Z,1.50
2023-05-05T15:12:48.653Z,1.63
2023-05-05T15:15:15.068Z,1.30
2023-05-05T15:17:41.492Z,1.58
2023-05-05T15:20:08.058Z,1.07
2023-05-05T15:22:34.753Z,1.05
2023-05-05T15:25:01.146Z,1.60
2023-05-05T15:27:27.595Z,1.75
2023-05-05T15:29:54.030Z,2.10
2023-05-05T15:32:20.416Z,1.33
2023-05-05T15:34:48.393Z,2.10
2023-05-05T15:37:16.553Z,1.20
2023-05-05T15:39:42.894Z,1.40
2023-05-05T15:42:09.223Z,2.28
2023-05-05T15:44:35.658Z,1.30
2023-05-05T15:47:02.118Z,3.10
2023-05-05T15:49:28.520Z,2.00
2023-05-05T15:51:54.999Z,1.90
2023-05-05T15:54:21.342Z,1.50
2023-05-05T15:56:47.774Z,1.77
2023-05-05T15:59:14.394Z,1.95
2023-05-05T16:01:40.842Z,1.95
2023-05-05T16:04:07.465Z,1.58
2023-05-05T16:06:33.985Z,1.83
2023-05-05T16:09:00.616Z,1.50
2023-05-05T16:11:27.172Z,1.80
2023-05-05T16:13:53.700Z,2.95
2023-05-05T16:16:20.188Z,3.30
2023-05-05T16:18:46.628Z,2.53
2023-05-05T16:21:13.165Z,3.10
2023-05-05T16:23:39.519Z,2.50
2023-05-05T16:26:05.901Z,2.38
2023-05-05T16:28:32.297Z,3.10
2023-05-05T16:30:58.646Z,2.95
2023-05-05T16:33:25.010Z,2.50
2023-05-05T16:35:51.378Z,2.47
2023-05-05T16:38:17.703Z,2.85
2023-05-05T16:40:44.047Z,3.13
2023-05-05T16:43:10.476Z,2.60
2023-05-05T16:45:36.827Z,3.38
2023-05-05T16:48:03.369Z,3.05
2023-05-05T16:50:29.885Z,1.85
2023-05-05T16:52:56.261Z,1.38
2023-05-05T16:55:22.712Z,2.78
2023-05-05T16:57:49.097Z,1.70
2023-05-05T17:00:15.555Z,2.53
2023-05-05T17:02:41.927Z,2.72
2023-05-05T17:05:08.997Z,3.95
2023-05-05T17:07:35.573Z,2.47
2023-05-05T17:10:01.943Z,2.42
2023-05-05T17:12:28.947Z,2.05
2023-05-05T17:14:55.322Z,2.72
2023-05-05T17:17:21.810Z,1.55
2023-05-05T17:19:48.265Z,1.75
2023-05-05T17:22:14.626Z,1.67
2023-05-05T17:24:40.994Z,1.35
2023-05-05T17:27:07.625Z,1.80
2023-05-05T17:29:34.093Z,1.80
2023-05-05T17:32:00.525Z,3.10
2023-05-05T17:34:26.995Z,2.03
2023-05-05T17:36:53.360Z,3.60
2023-05-05T17:39:19.700Z,3.13
2023-05-05T17:41:46.205Z,3.10
2023-05-05T17:44:12.566Z,2.33
2023-05-05T17:46:38.936Z,1.60
2023-05-05T17:49:05.381Z,2.53
2023-05-05T17:51:31.734Z,1.60
2023-05-05T17:53:58.122Z,1.80
2023-05-05T17:56:24.595Z,1.38
2023-05-05T17:58:51.024Z,1.30
2023-05-05T18:01:20.877Z,1.73
2023-05-05T18:03:47.349Z,1.90
2023-05-05T18:06:13.789Z,2.15
2023-05-05T18:08:40.141Z,1.88
2023-05-05T18:11:06.645Z,1.88
2023-05-05T18:13:33.014Z,1.08
2023-05-05T18:15:59.435Z,1.58
2023-05-05T18:18:25.999Z,1.70
2023-05-05T18:20:52.371Z,2.22
2023-05-05T18:23:18.735Z,2.15
2023-05-05T18:25:45.117Z,1.70
2023-05-05T18:28:11.476Z,2.30
2023-05-05T18:30:38.144Z,1.58
2023-05-05T18:33:04.713Z,2.10
2023-05-05T18:35:31.118Z,2.42
2023-05-05T18:37:57.455Z,1.75
2023-05-05T18:40:23.863Z,1.80
2023-05-05T18:42:50.316Z,2.08
2023-05-05T18:45:16.808Z,1.65
2023-05-05T18:47:43.230Z,2.42
2023-05-05T18:50:09.626Z,3.35
2023-05-05T18:52:36.007Z,2.95
2023-05-05T18:55:02.476Z,2.45
2023-05-05T18:57:28.944Z,2.47
2023-05-05T18:59:55.288Z,1.60
2023-05-05T19:02:21.700Z,2.70
2023-05-05T19:04:48.111Z,2.47
2023-05-05T19:07:21.132Z,1.83
2023-05-05T19:09:57.939Z,2.35
2023-05-05T19:12:24.288Z,2.10
2023-05-05T19:14:50.680Z,1.95
2023-05-05T19:17:17.070Z,1.65
2023-05-05T19:19:43.402Z,1.88
2023-05-05T19:22:09.737Z,6.37
2023-05-05T19:24:36.495Z,4.10
2023-05-05T19:27:02.924Z,2.85
2023-05-05T19:29:29.281Z,2.25
2023-05-05T19:31:55.755Z,2.80
2023-05-05T19:34:22.150Z,4.15
2023-05-05T19:36:48.526Z,3.60
2023-05-05T19:39:15.880Z,3.08
2023-05-05T19:41:42.248Z,3.13
2023-05-05T19:44:08.589Z,3.50
2023-05-05T19:46:35.112Z,3.83
2023-05-05T19:49:01.494Z,3.40
2023-05-05T19:51:27.865Z,2.92
2023-05-05T19:53:54.268Z,1.80
2023-05-05T19:56:21.066Z,2.63
2023-05-05T19:58:57.754Z,1.90
2023-05-05T20:01:24.533Z,2.60
2023-05-05T20:03:52.956Z,2.72
2023-05-05T20:06:19.487Z,2.25
2023-05-05T20:08:45.844Z,2.38
2023-05-05T20:11:12.407Z,2.40
2023-05-05T20:13:38.800Z,2.40
2023-05-05T20:16:06.010Z,2.67
2023-05-05T20:18:32.551Z,2.08
2023-05-05T20:20:59.042Z,2.33
2023-05-05T20:23:26.207Z,2.55
2023-05-05T20:25:53.271Z,3.30
2023-05-05T20:28:19.735Z,2.03
2023-05-05T20:30:46.159Z,1.70
2023-05-05T20:33:12.545Z,3.38
2023-05-05T20:35:38.951Z,2.20
2023-05-05T20:38:05.592Z,2.08
2023-05-05T20:40:32.448Z,2.17
2023-05-05T20:42:59.453Z,2.40
2023-05-05T20:45:25.802Z,2.08
2023-05-05T20:47:52.249Z,1.90
2023-05-05T20:50:18.997Z,1.88
2023-05-05T20:52:45.344Z,2.22
2023-05-05T20:55:12.864Z,2.33
2023-05-05T20:57:39.336Z,2.05
2023-05-05T21:00:06.227Z,1.85
2023-05-05T21:02:32.653Z,1.70
2023-05-05T21:04:59.271Z,2.53
2023-05-05T21:07:25.626Z,2.45
2023-05-05T21:09:52.011Z,2.72
2023-05-05T21:12:18.606Z,2.90
2023-05-05T21:14:44.949Z,3.40
2023-05-05T21:17:11.275Z,3.17
2023-05-05T21:19:37.648Z,3.15
2023-05-05T21:22:03.998Z,3.60
2023-05-05T21:24:30.356Z,2.80
2023-05-05T21:26:56.850Z,3.03
2023-05-05T21:29:24.147Z,2.78
2023-05-05T21:31:50.659Z,2.08
2023-05-05T21:34:17.519Z,3.17
2023-05-05T21:36:43.926Z,2.72
2023-05-05T21:39:10.496Z,2.45
2023-05-05T21:41:36.881Z,2.20
2023-05-05T21:44:03.215Z,2.90
2023-05-05T21:46:29.587Z,2.53
2023-05-05T21:48:56.028Z,2.05
2023-05-05T21:51:22.395Z,3.45
2023-05-05T21:53:48.857Z,2.20
2023-05-05T21:56:15.422Z,2.63
2023-05-05T21:58:42.222Z,2.35
2023-05-05T22:01:08.679Z,2.30
2023-05-05T22:03:36.403Z,2.50
2023-05-05T22:06:03.019Z,2.53
2023-05-05T22:08:29.476Z,3.17
2023-05-05T22:10:56.029Z,2.83
2023-05-05T22:13:22.519Z,2.90
2023-05-05T22:15:49.071Z,2.60
2023-05-05T22:18:15.805Z,2.67
2023-05-05T22:20:42.329Z,2.60
2023-05-05T22:23:08.776Z,2.85
2023-05-05T22:25:35.396Z,2.95
2023-05-05T22:28:01.852Z,2.97
2023-05-05T22:30:28.326Z,3.10
2023-05-05T22:32:54.854Z,2.60
2023-05-05T22:35:21.331Z,2.42
2023-05-05T22:37:47.759Z,2.90
2023-05-05T22:40:14.528Z,2.38
2023-05-05T22:42:40.976Z,2.67
2023-05-05T22:45:08.115Z,2.50
2023-05-05T22:47:34.809Z,2.63
2023-05-05T22:50:01.313Z,2.80
2023-05-05T22:52:27.784Z,3.20
2023-05-05T22:54:54.817Z,2.53
2023-05-05T22:57:21.364Z,2.20
2023-05-05T22:59:47.823Z,2.53
2023-05-05T23:02:14.392Z,2.60
2023-05-05T23:04:41.001Z,3.05
2023-05-05T23:07:07.558Z,2.80
2023-05-05T23:09:34.134Z,2.55
2023-05-05T23:12:00.580Z,2.65
2023-05-05T23:14:27.030Z,2.67
2023-05-05T23:16:53.662Z,3.58
2023-05-05T23:19:20.144Z,2.50
2023-05-05T23:21:53.372Z,2.63
2023-05-05T23:24:20.353Z,3.03
2023-05-05T23:26:46.801Z,2.70
2023-05-05T23:29:13.288Z,2.88
2023-05-05T23:31:39.864Z,2.83
2023-05-05T23:34:06.343Z,2.75
2023-05-05T23:36:32.805Z,2.63
2023-05-05T23:38:59.275Z,2.60
2023-05-05T23:41:25.733Z,2.83
2023-05-05T23:43:52.166Z,2.92
2023-05-05T23:46:18.759Z,2.90
2023-05-05T23:48:45.204Z,2.53
2023-05-05T23:51:11.653Z,2.57
2023-05-05T23:53:38.146Z,2.38
2023-05-05T23:56:05.024Z,2.70
2023-05-05T23:58:31.607Z,2.05
